Terminal Aerodrome Forecast
Issued by NWS

Home | Current Version | Previous Version | Text Only | Print | Product List | Glossary Off
Versions: 1 2 3 4 5 6 7 8 9 10 11 12 13 14 15 16 17 18 19 20 21 22

000
FTUS43 KABR 281600 AAA
TAFPIR
TAF AMD
KPIR 281627Z 2816/0112 21013KT P6SM FEW200
     FM281800 26010KT P6SM SKC
     FM282100 30006KT P6SM BKN250=

USA.gov is the U.S. government's official web portal to all federal, state and local government web resources and services.